createdAt,value
2019-02-22T00:01:54.561Z,21.45
2019-02-22T00:04:23.905Z,27.00
2019-02-22T00:06:53.267Z,27.27
2019-02-22T00:09:22.461Z,21.55
2019-02-22T00:11:51.781Z,22.80
2019-02-22T00:14:20.961Z,20.15
2019-02-22T00:16:50.173Z,22.98
2019-02-22T00:19:19.381Z,20.97
2019-02-22T00:21:48.546Z,18.67
2019-02-22T00:24:17.741Z,21.15
2019-02-22T00:26:47.326Z,20.23
2019-02-22T00:29:16.520Z,18.48
2019-02-22T00:31:45.702Z,17.75
2019-02-22T00:34:14.910Z,16.48
2019-02-22T00:36:44.213Z,17.15
2019-02-22T00:39:13.478Z,16.35
2019-02-22T00:41:42.677Z,13.88
2019-02-22T00:44:11.808Z,14.65
2019-02-22T00:46:40.985Z,15.35
2019-02-22T00:49:10.184Z,14.50
2019-02-22T00:51:39.398Z,14.30
2019-02-22T00:54:08.577Z,12.15
2019-02-22T00:56:37.905Z,12.53
2019-02-22T00:59:07.029Z,12.98
2019-02-22T01:01:36.209Z,13.28
2019-02-22T01:04:05.400Z,15.55
2019-02-22T01:06:34.551Z,14.15
2019-02-22T01:09:04.495Z,12.50
2019-02-22T01:11:33.657Z,12.40
2019-02-22T01:14:02.831Z,14.20
2019-02-22T01:16:31.983Z,13.10
2019-02-22T01:19:01.183Z,12.98
2019-02-22T01:21:30.379Z,14.35
2019-02-22T01:23:59.513Z,15.55
2019-02-22T01:26:28.656Z,13.20
2019-02-22T01:28:57.887Z,12.88
2019-02-22T01:31:27.005Z,13.15
2019-02-22T01:33:56.189Z,13.58
2019-02-22T01:36:25.782Z,12.60
2019-02-22T01:38:54.998Z,12.37
2019-02-22T01:41:24.204Z,13.28
2019-02-22T01:43:53.342Z,12.70
2019-02-22T01:46:22.529Z,12.13
2019-02-22T01:48:51.662Z,12.23
2019-02-22T01:51:20.812Z,12.80
2019-02-22T01:53:49.966Z,13.83
2019-02-22T01:56:19.102Z,12.13
2019-02-22T01:58:49.105Z,11.40
2019-02-22T02:01:18.374Z,13.35
2019-02-22T02:03:47.525Z,13.95
2019-02-22T02:06:16.705Z,12.65
2019-02-22T02:08:45.898Z,11.90
2019-02-22T02:11:15.041Z,11.85
2019-02-22T02:13:44.241Z,11.93
2019-02-22T02:16:13.399Z,11.25
2019-02-22T02:18:42.551Z,12.25
2019-02-22T02:21:11.685Z,12.85
2019-02-22T02:23:40.839Z,9.70
2019-02-22T02:26:10.057Z,11.40
2019-02-22T02:28:39.208Z,10.05
2019-02-22T02:31:08.346Z,9.05
2019-02-22T02:33:37.494Z,11.00
2019-02-22T02:36:06.642Z,9.85
2019-02-22T02:38:35.808Z,9.08
2019-02-22T02:41:10.851Z,10.23
2019-02-22T02:43:35.866Z,8.83
2019-02-22T02:46:05.077Z,14.58
2019-02-22T02:48:34.203Z,14.10
2019-02-22T02:51:03.378Z,14.80
2019-02-22T02:53:32.554Z,14.13
2019-02-22T02:56:01.747Z,15.60
2019-02-22T02:58:30.904Z,18.02
2019-02-22T03:01:00.036Z,15.90
2019-02-22T03:03:29.296Z,16.07
2019-02-22T03:06:12.662Z,17.30
2019-02-22T03:08:41.810Z,17.42
2019-02-22T03:11:20.342Z,14.20
2019-02-22T03:13:41.867Z,16.75
2019-02-22T03:16:10.987Z,15.98
2019-02-22T03:18:40.137Z,18.52
2019-02-22T03:21:09.285Z,18.65
2019-02-22T03:23:38.491Z,17.77
2019-02-22T03:26:07.628Z,17.60
2019-02-22T03:28:36.827Z,15.18
2019-02-22T03:31:05.944Z,20.82
2019-02-22T03:33:35.080Z,18.15
2019-02-22T03:36:04.270Z,13.08
2019-02-22T03:38:33.399Z,18.62
2019-02-22T03:41:02.624Z,19.42
2019-02-22T03:43:31.803Z,12.30
2019-02-22T03:46:00.922Z,12.68
2019-02-22T03:48:30.116Z,14.45
2019-02-22T03:50:59.268Z,18.50
2019-02-22T03:53:35.025Z,13.80
2019-02-22T03:56:04.282Z,14.93
2019-02-22T03:58:33.562Z,20.72
2019-02-22T04:01:02.680Z,13.25
2019-02-22T04:03:31.804Z,18.75
2019-02-22T04:06:00.970Z,19.10
2019-02-22T04:08:30.127Z,15.95
2019-02-22T04:10:59.271Z,12.45
2019-02-22T04:13:28.430Z,13.32
2019-02-22T04:15:57.591Z,13.53
2019-02-22T04:18:26.864Z,18.27
2019-02-22T04:20:56.031Z,14.18
2019-02-22T04:23:25.141Z,15.93
2019-02-22T04:25:54.313Z,13.28
2019-02-22T04:28:23.514Z,15.48
2019-02-22T04:30:52.680Z,16.32
2019-02-22T04:33:21.848Z,20.45
2019-02-22T04:35:51.071Z,19.50
2019-02-22T04:38:20.194Z,21.35
2019-02-22T04:40:49.438Z,18.40
2019-02-22T04:43:18.608Z,17.90
2019-02-22T04:45:47.771Z,21.02
2019-02-22T04:48:19.987Z,17.98
2019-02-22T04:50:49.126Z,19.05
2019-02-22T04:53:18.256Z,20.48
2019-02-22T04:55:47.471Z,19.07
2019-02-22T04:58:16.626Z,19.62
2019-02-22T05:00:45.772Z,18.25
2019-02-22T05:03:14.942Z,16.17
2019-02-22T05:05:44.116Z,19.25
2019-02-22T05:08:13.265Z,21.82
2019-02-22T05:10:42.396Z,19.62
2019-02-22T05:13:11.587Z,20.32
2019-02-22T05:15:40.842Z,20.85
2019-02-22T05:18:10.084Z,21.15
2019-02-22T05:20:39.334Z,21.90
2019-02-22T05:23:08.507Z,21.80
2019-02-22T05:25:37.673Z,22.98
2019-02-22T05:28:06.880Z,19.70
2019-02-22T05:30:36.637Z,20.95
2019-02-22T05:33:05.821Z,21.77
2019-02-22T05:35:35.017Z,24.77
2019-02-22T05:38:04.161Z,20.25
2019-02-22T05:40:33.317Z,16.37
2019-02-22T05:43:02.473Z,21.87
2019-02-22T05:45:31.634Z,17.80
2019-02-22T05:48:00.779Z,17.62
2019-02-22T05:50:29.947Z,20.30
2019-02-22T05:52:59.146Z,22.35
2019-02-22T05:55:30.344Z,20.88
2019-02-22T05:57:59.477Z,20.17
2019-02-22T06:00:28.711Z,17.10
2019-02-22T06:02:57.836Z,20.02
2019-02-22T06:05:27.083Z,22.10
2019-02-22T06:07:56.269Z,22.13
2019-02-22T06:10:25.409Z,22.48
2019-02-22T06:12:54.571Z,19.95
2019-02-22T06:15:23.742Z,18.87
2019-02-22T06:17:52.936Z,19.62
2019-02-22T06:20:22.082Z,20.25
2019-02-22T06:22:51.222Z,19.70
2019-02-22T06:25:20.384Z,20.48
2019-02-22T06:27:49.591Z,23.45
2019-02-22T06:30:18.724Z,19.82
2019-02-22T06:32:48.025Z,23.47
2019-02-22T06:35:17.204Z,20.48
2019-02-22T06:37:46.363Z,23.92
2019-02-22T06:40:15.511Z,22.13
2019-02-22T06:42:46.074Z,21.45
2019-02-22T06:45:15.656Z,21.02
2019-02-22T06:47:44.832Z,20.68
2019-02-22T06:50:13.958Z,15.50
2019-02-22T06:52:43.123Z,15.38
2019-02-22T06:55:12.266Z,17.52
2019-02-22T06:57:41.431Z,17.02
2019-02-22T07:00:11.890Z,16.02
2019-02-22T07:02:41.025Z,21.85
2019-02-22T07:05:10.201Z,20.25
2019-02-22T07:07:39.366Z,19.20
2019-02-22T07:10:09.318Z,16.17
2019-02-22T07:12:56.535Z,21.57
2019-02-22T07:15:18.932Z,22.58
2019-02-22T07:17:48.069Z,15.40
2019-02-22T07:20:17.224Z,18.85
2019-02-22T07:22:46.419Z,19.87
2019-02-22T07:25:15.613Z,19.62
2019-02-22T07:27:44.796Z,17.62
2019-02-22T07:30:13.951Z,17.95
2019-02-22T07:32:43.166Z,22.82
2019-02-22T07:35:14.305Z,26.05
2019-02-22T07:37:43.176Z,22.27
2019-02-22T07:40:12.326Z,19.57
2019-02-22T07:42:41.501Z,23.00
2019-02-22T07:45:11.778Z,20.80
2019-02-22T07:47:40.965Z,16.82
2019-02-22T07:50:11.536Z,22.98
2019-02-22T07:52:40.692Z,26.23
2019-02-22T07:55:10.650Z,25.95
2019-02-22T07:57:40.349Z,24.60
2019-02-22T08:00:12.393Z,34.45
2019-02-22T08:02:41.611Z,28.85
2019-02-22T08:05:10.751Z,28.75
2019-02-22T08:07:39.967Z,32.95
2019-02-22T08:10:09.125Z,27.58
2019-02-22T08:12:38.385Z,31.07
2019-02-22T08:15:08.617Z,25.75
2019-02-22T08:17:37.839Z,18.80
2019-02-22T08:20:07.329Z,16.82
2019-02-22T08:22:36.457Z,14.93
2019-02-22T08:25:05.607Z,20.23
2019-02-22T08:27:34.876Z,43.63
2019-02-22T08:30:04.452Z,31.07
2019-02-22T08:32:33.636Z,19.70
2019-02-22T08:35:02.764Z,17.20
2019-02-22T08:37:31.910Z,14.70
2019-02-22T08:40:02.267Z,27.42
2019-02-22T08:42:31.901Z,21.42
2019-02-22T08:45:01.076Z,23.85
2019-02-22T08:47:30.232Z,18.77
2019-02-22T08:49:59.356Z,20.48
2019-02-22T08:52:28.544Z,21.95
2019-02-22T08:54:57.686Z,17.02
2019-02-22T08:57:26.875Z,20.02
2019-02-22T08:59:56.042Z,22.20
2019-02-22T09:02:25.203Z,20.77
2019-02-22T09:04:54.373Z,15.13
2019-02-22T09:07:23.526Z,27.90
2019-02-22T09:09:52.662Z,20.85
2019-02-22T09:12:21.853Z,20.23
2019-02-22T09:14:51.023Z,16.42
2019-02-22T09:17:20.179Z,16.42
2019-02-22T09:19:49.341Z,13.78
2019-02-22T09:22:22.871Z,14.33
2019-02-22T09:24:49.387Z,15.55
2019-02-22T09:27:18.527Z,19.82
2019-02-22T09:29:58.163Z,17.17
2019-02-22T09:32:18.554Z,18.65
2019-02-22T09:34:48.118Z,18.02
2019-02-22T09:37:17.291Z,19.12
2019-02-22T09:39:46.479Z,12.95
2019-02-22T09:42:15.630Z,13.58
2019-02-22T09:44:44.798Z,13.43
2019-02-22T09:47:13.994Z,11.75
2019-02-22T09:49:43.184Z,11.30
2019-02-22T09:52:12.356Z,12.07
2019-02-22T09:54:41.502Z,15.53
2019-02-22T09:57:10.682Z,14.07
2019-02-22T09:59:39.836Z,12.70
2019-02-22T10:02:09.012Z,10.65
2019-02-22T10:04:38.217Z,12.88
2019-02-22T10:07:07.391Z,13.05
2019-02-22T10:09:36.585Z,9.93
2019-02-22T10:12:05.763Z,13.95
2019-02-22T10:14:35.026Z,13.60
2019-02-22T10:17:04.188Z,12.93
2019-02-22T10:19:33.357Z,9.80
2019-02-22T10:22:02.520Z,10.95
2019-02-22T10:24:31.702Z,12.35
2019-02-22T10:27:00.847Z,13.08
2019-02-22T10:29:30.031Z,12.68
2019-02-22T10:31:59.208Z,11.28
2019-02-22T10:34:28.409Z,13.20
2019-02-22T10:36:57.524Z,10.63
2019-02-22T10:39:26.676Z,11.05
2019-02-22T10:41:55.832Z,7.65
2019-02-22T10:44:25.037Z,7.97
2019-02-22T10:46:54.183Z,14.85
2019-02-22T10:49:23.372Z,12.93
2019-02-22T10:51:52.546Z,8.45
2019-02-22T10:54:21.694Z,9.53
2019-02-22T10:56:50.849Z,10.45
2019-02-22T10:59:20.038Z,8.80
2019-02-22T11:01:49.180Z,9.45
2019-02-22T11:04:18.316Z,12.68
2019-02-22T11:06:47.482Z,7.22
2019-02-22T11:09:17.916Z,8.58
2019-02-22T11:11:47.131Z,7.00
2019-02-22T11:14:16.307Z,8.03
2019-02-22T11:16:45.587Z,7.65
2019-02-22T11:19:14.726Z,5.30
2019-02-22T11:21:43.901Z,7.75
2019-02-22T11:24:13.093Z,9.30
2019-02-22T11:26:42.229Z,5.95
2019-02-22T11:29:11.365Z,8.08
2019-02-22T11:31:40.536Z,6.22
2019-02-22T11:34:09.697Z,8.43
2019-02-22T11:36:38.931Z,6.97
2019-02-22T11:39:08.241Z,8.48
2019-02-22T11:41:37.407Z,6.87
2019-02-22T11:44:06.555Z,8.70
2019-02-22T11:46:35.726Z,8.63
2019-02-22T11:49:04.902Z,9.75
2019-02-22T11:51:34.086Z,7.40
2019-02-22T11:54:03.253Z,8.50
2019-02-22T11:56:32.398Z,8.93
2019-02-22T11:59:01.532Z,8.30
2019-02-22T12:01:30.702Z,6.53
2019-02-22T12:03:59.942Z,5.83
2019-02-22T12:06:29.053Z,9.35
2019-02-22T12:08:58.205Z,6.33
2019-02-22T12:11:27.416Z,7.62
2019-02-22T12:13:56.562Z,7.20
2019-02-22T12:16:25.747Z,5.20
2019-02-22T12:18:54.887Z,6.53
2019-02-22T12:21:24.078Z,6.37
2019-02-22T12:23:53.298Z,6.87
2019-02-22T12:26:22.437Z,6.12
2019-02-22T12:28:51.622Z,8.53
2019-02-22T12:31:20.770Z,7.28
2019-02-22T12:33:49.970Z,6.40
2019-02-22T12:36:19.075Z,5.85
2019-02-22T12:38:48.259Z,6.40
2019-02-22T12:41:17.425Z,7.60
2019-02-22T12:43:46.630Z,5.58
2019-02-22T12:46:15.835Z,6.50
2019-02-22T12:48:45.250Z,5.22
2019-02-22T12:51:14.460Z,5.83
2019-02-22T12:53:44.047Z,7.15
2019-02-22T12:56:13.256Z,6.62
2019-02-22T12:58:42.894Z,7.45
2019-02-22T13:01:12.100Z,7.80
2019-02-22T13:03:41.274Z,8.20
2019-02-22T13:06:10.434Z,9.00
2019-02-22T13:08:39.597Z,7.70
2019-02-22T13:11:08.756Z,9.75
2019-02-22T13:13:37.928Z,8.88
2019-02-22T13:16:07.089Z,8.68
2019-02-22T13:18:36.284Z,8.03
2019-02-22T13:21:05.468Z,8.25
2019-02-22T13:23:34.649Z,8.55
2019-02-22T13:26:03.813Z,9.55
2019-02-22T13:28:35.370Z,9.10
2019-02-22T13:31:04.506Z,8.80
2019-02-22T13:33:33.656Z,9.78
2019-02-22T13:36:02.908Z,9.30
2019-02-22T13:38:32.046Z,9.60
2019-02-22T13:41:01.191Z,9.08
2019-02-22T13:43:30.355Z,10.20
2019-02-22T13:45:59.563Z,10.45
2019-02-22T13:48:28.715Z,10.75
2019-02-22T13:50:57.891Z,63.70
2019-02-22T13:53:27.044Z,15.20
2019-02-22T13:55:56.185Z,14.58
2019-02-22T13:58:25.395Z,14.50
2019-02-22T14:00:54.600Z,12.93
2019-02-22T14:03:23.885Z,13.20
2019-02-22T14:05:53.040Z,18.10
2019-02-22T14:08:22.225Z,16.17
2019-02-22T14:10:51.412Z,11.78
2019-02-22T14:13:20.618Z,10.20
2019-02-22T14:15:49.787Z,12.23
2019-02-22T14:18:18.998Z,13.68
2019-02-22T14:20:48.622Z,9.45
2019-02-22T14:23:17.955Z,12.15
2019-02-22T14:25:47.182Z,10.48
2019-02-22T14:28:16.345Z,9.28
2019-02-22T14:30:45.548Z,10.60
2019-02-22T14:33:14.687Z,9.45
2019-02-22T14:35:43.970Z,8.05
2019-02-22T14:38:13.274Z,13.98
2019-02-22T14:40:42.708Z,10.32
2019-02-22T14:43:16.472Z,13.15
2019-02-22T14:45:49.611Z,14.23
2019-02-22T14:48:13.653Z,14.50
2019-02-22T14:50:42.826Z,14.13
2019-02-22T14:53:19.475Z,10.70
2019-02-22T14:55:42.887Z,11.45
2019-02-22T14:58:12.129Z,15.28
2019-02-22T15:00:41.297Z,9.33
2019-02-22T15:03:10.473Z,16.15
2019-02-22T15:05:39.655Z,16.85
2019-02-22T15:08:08.814Z,17.62
2019-02-22T15:10:38.015Z,17.12
2019-02-22T15:13:07.161Z,22.60
2019-02-22T15:16:00.874Z,21.12
2019-02-22T15:18:26.257Z,18.65
2019-02-22T15:20:55.420Z,19.07
2019-02-22T15:23:24.616Z,18.80
2019-02-22T15:25:53.843Z,18.73
2019-02-22T15:28:23.097Z,16.15
2019-02-22T15:30:52.357Z,16.85
2019-02-22T15:33:21.473Z,17.02
2019-02-22T15:35:50.669Z,18.10
2019-02-22T15:38:19.848Z,16.32
2019-02-22T15:40:49.090Z,15.78
2019-02-22T15:43:18.294Z,16.70
2019-02-22T15:45:47.661Z,16.73
2019-02-22T15:48:25.613Z,17.65
2019-02-22T15:50:54.840Z,17.20
2019-02-22T15:53:24.185Z,15.48
2019-02-22T15:55:53.349Z,15.10
2019-02-22T15:58:22.525Z,18.05
2019-02-22T16:00:51.777Z,16.10
2019-02-22T16:03:20.965Z,18.17
2019-02-22T16:05:50.131Z,18.65
2019-02-22T16:08:19.315Z,19.65
2019-02-22T16:10:48.611Z,20.75
2019-02-22T16:13:17.755Z,19.70
2019-02-22T16:15:47.163Z,21.95
2019-02-22T16:18:16.325Z,20.43
2019-02-22T16:20:45.541Z,21.20
2019-02-22T16:23:14.741Z,21.60
2019-02-22T16:25:43.936Z,21.07
2019-02-22T16:28:15.669Z,24.80
2019-02-22T16:30:43.987Z,24.55
2019-02-22T16:33:13.480Z,26.82
2019-02-22T16:35:42.718Z,21.77
2019-02-22T16:38:11.895Z,25.72
2019-02-22T16:40:41.080Z,20.72
2019-02-22T16:43:10.242Z,20.92
2019-02-22T16:45:39.416Z,20.12
2019-02-22T16:48:08.610Z,17.90
2019-02-22T16:50:37.801Z,17.80
2019-02-22T16:53:07.028Z,17.37
2019-02-22T16:55:36.614Z,17.05
2019-02-22T16:58:05.840Z,17.77
2019-02-22T17:00:35.051Z,17.62
2019-02-22T17:03:04.429Z,14.80
2019-02-22T17:05:33.653Z,15.53
2019-02-22T17:08:02.857Z,14.50
2019-02-22T17:10:32.233Z,14.87
2019-02-22T17:13:01.425Z,13.45
2019-02-22T17:15:30.649Z,10.82
2019-02-22T17:18:01.613Z,10.23
2019-02-22T17:20:30.843Z,10.68
2019-02-22T17:23:00.067Z,8.58
2019-02-22T17:25:31.308Z,10.23
2019-02-22T17:28:00.479Z,9.05
2019-02-22T17:30:29.653Z,8.95
2019-02-22T17:32:58.837Z,8.88
2019-02-22T17:35:28.048Z,14.00
2019-02-22T17:37:57.222Z,10.58
2019-02-22T17:40:26.552Z,13.48
2019-02-22T17:42:55.741Z,10.38
2019-02-22T17:45:25.027Z,9.45
2019-02-22T17:47:54.243Z,8.78
2019-02-22T17:50:23.540Z,16.75
2019-02-22T17:52:52.876Z,12.88
2019-02-22T17:55:22.106Z,11.90
2019-02-22T17:57:51.299Z,13.43
2019-02-22T18:00:21.347Z,10.03
2019-02-22T18:02:54.952Z,14.40
2019-02-22T18:05:24.129Z,10.38
2019-02-22T18:07:53.289Z,11.53
2019-02-22T18:10:22.496Z,10.13
2019-02-22T18:12:51.645Z,11.00
2019-02-22T18:15:20.867Z,10.80
2019-02-22T18:17:50.058Z,12.13
2019-02-22T18:20:19.308Z,11.25
2019-02-22T18:22:48.535Z,10.98
2019-02-22T18:25:17.705Z,11.57
2019-02-22T18:27:46.912Z,12.28
2019-02-22T18:30:16.392Z,11.75
2019-02-22T18:32:45.653Z,11.15
2019-02-22T18:35:14.831Z,12.68
2019-02-22T18:37:44.042Z,13.48
2019-02-22T18:40:13.783Z,13.13
2019-02-22T18:42:42.968Z,13.03
2019-02-22T18:45:12.168Z,12.60
2019-02-22T18:47:41.360Z,10.63
2019-02-22T18:50:10.993Z,8.48
2019-02-22T18:52:40.245Z,11.85
2019-02-22T18:55:09.811Z,13.10
2019-02-22T18:57:38.972Z,13.80
2019-02-22T19:00:10.584Z,11.12
2019-02-22T19:02:40.431Z,9.40
2019-02-22T19:05:10.210Z,13.45
2019-02-22T19:07:40.314Z,11.73
2019-02-22T19:10:11.145Z,14.33
2019-02-22T19:12:40.441Z,12.30
2019-02-22T19:15:11.381Z,13.20
2019-02-22T19:17:40.718Z,10.78
2019-02-22T19:20:11.947Z,14.63
2019-02-22T19:22:41.194Z,18.70
2019-02-22T19:25:10.431Z,15.48
2019-02-22T19:27:39.856Z,18.48
2019-02-22T19:30:12.059Z,20.23
2019-02-22T19:32:41.564Z,16.62
2019-02-22T19:35:11.298Z,25.82
2019-02-22T19:37:41.747Z,17.32
2019-02-22T19:40:16.035Z,25.45
2019-02-22T19:42:46.260Z,20.57
2019-02-22T19:45:16.540Z,34.65
2019-02-22T19:47:46.318Z,32.10
2019-02-22T19:50:15.643Z,18.87
2019-02-22T19:52:45.144Z,23.65
2019-02-22T19:55:15.530Z,24.12
2019-02-22T19:57:44.892Z,17.57
2019-02-22T20:00:16.091Z,17.57
2019-02-22T20:02:45.541Z,15.88
2019-02-22T20:05:14.954Z,15.65
2019-02-22T20:07:44.756Z,18.65
2019-02-22T20:10:18.108Z,13.25
2019-02-22T20:12:46.652Z,17.40
2019-02-22T20:15:16.820Z,18.17
2019-02-22T20:17:54.321Z,18.10
2019-02-22T20:20:17.432Z,17.02
2019-02-22T20:22:47.188Z,28.25
2019-02-22T20:25:16.620Z,16.12
2019-02-22T20:27:45.991Z,19.67
2019-02-22T20:30:15.758Z,38.70
2019-02-22T20:32:44.860Z,21.57
2019-02-22T20:35:16.313Z,20.70
2019-02-22T20:37:52.844Z,19.95
2019-02-22T20:40:18.035Z,18.98
2019-02-22T20:42:47.249Z,20.25
2019-02-22T20:45:16.933Z,22.52
2019-02-22T20:47:46.973Z,20.20
2019-02-22T20:50:16.279Z,21.25
2019-02-22T20:52:45.639Z,20.62
2019-02-22T20:55:14.829Z,18.37
2019-02-22T20:57:44.052Z,18.90
2019-02-22T21:00:15.839Z,19.87
2019-02-22T21:02:45.139Z,17.75
2019-02-22T21:05:14.470Z,18.32
2019-02-22T21:07:43.920Z,16.60
2019-02-22T21:10:14.867Z,18.37
2019-02-22T21:13:09.796Z,16.67
2019-02-22T21:15:56.703Z,17.35
2019-02-22T21:18:49.706Z,15.98
2019-02-22T21:21:26.078Z,17.27
2019-02-22T21:23:57.537Z,18.40
2019-02-22T21:26:26.897Z,21.10
2019-02-22T21:28:56.195Z,20.15
2019-02-22T21:31:26.710Z,20.80
2019-02-22T21:33:56.126Z,19.52
2019-02-22T21:36:25.293Z,21.10
2019-02-22T21:38:54.483Z,16.95
2019-02-22T21:41:23.622Z,18.20
2019-02-22T21:43:52.915Z,18.27
2019-02-22T21:46:22.182Z,25.45
2019-02-22T21:48:51.410Z,22.35
2019-02-22T21:51:20.735Z,21.55
2019-02-22T21:53:49.879Z,20.10
2019-02-22T21:56:19.056Z,20.75
2019-02-22T21:58:48.958Z,16.48
2019-02-22T22:01:18.325Z,19.42
2019-02-22T22:03:47.460Z,17.17
2019-02-22T22:06:16.661Z,16.93
2019-02-22T22:08:45.852Z,19.00
2019-02-22T22:11:15.034Z,17.73
2019-02-22T22:13:44.381Z,18.77
2019-02-22T22:16:13.677Z,18.37
2019-02-22T22:18:42.834Z,15.45
2019-02-22T22:21:12.062Z,17.92
2019-02-22T22:23:41.253Z,17.92
2019-02-22T22:26:11.309Z,16.52
2019-02-22T22:28:40.632Z,13.13
2019-02-22T22:31:09.790Z,18.52
2019-02-22T22:33:38.994Z,18.92
2019-02-22T22:36:08.214Z,17.48
2019-02-22T22:38:37.397Z,16.35
2019-02-22T22:41:06.585Z,16.70
2019-02-22T22:43:35.763Z,18.92
2019-02-22T22:46:05.050Z,19.07
2019-02-22T22:48:36.581Z,18.77
2019-02-22T22:51:05.955Z,17.55
2019-02-22T22:53:35.147Z,13.68
2019-02-22T22:56:04.316Z,16.60
2019-02-22T22:58:33.514Z,18.48
2019-02-22T23:01:11.861Z,17.57
2019-02-22T23:03:41.151Z,19.25
2019-02-22T23:06:11.646Z,17.10
2019-02-22T23:08:40.876Z,12.88
2019-02-22T23:11:10.132Z,17.67
2019-02-22T23:13:39.317Z,19.32
2019-02-22T23:16:08.520Z,18.95
2019-02-22T23:18:37.779Z,18.70
2019-02-22T23:21:06.948Z,19.77
2019-02-22T23:23:36.128Z,19.98
2019-02-22T23:26:05.330Z,17.98
2019-02-22T23:28:34.509Z,19.00
2019-02-22T23:31:03.711Z,17.87
2019-02-22T23:33:33.058Z,19.42
2019-02-22T23:36:02.358Z,18.95
2019-02-22T23:38:31.510Z,17.50
2019-02-22T23:41:00.752Z,19.02
2019-02-22T23:43:30.254Z,16.97
2019-02-22T23:45:59.795Z,18.42
2019-02-22T23:48:28.935Z,16.15
2019-02-22T23:50:58.335Z,15.13
2019-02-22T23:53:27.533Z,15.72
2019-02-22T23:55:56.813Z,13.55
2019-02-22T23:58:26.165Z,14.58
